createdAt,value
2022-09-27T00:02:10.518Z,957.89
2022-09-27T00:07:41.583Z,957.89
2022-09-27T00:13:13.350Z,958.0
2022-09-27T00:18:45.008Z,957.93
2022-09-27T00:24:16.833Z,957.81
2022-09-27T00:29:52.946Z,958.13
2022-09-27T00:35:24.736Z,957.95
2022-09-27T00:40:56.544Z,958.24
2022-09-27T00:46:28.442Z,958.09
2022-09-27T00:51:59.765Z,958.2
2022-09-27T00:57:31.581Z,958.25
2022-09-27T01:03:03.711Z,958.61
2022-09-27T01:08:38.245Z,958.37
2022-09-27T01:14:06.753Z,958.49
2022-09-27T01:19:38.529Z,958.67
2022-09-27T01:25:10.163Z,958.84
2022-09-27T01:30:48.556Z,958.8
2022-09-27T01:36:20.064Z,958.87
2022-09-27T01:41:51.750Z,959.13
2022-09-27T01:47:23.541Z,959.49
2022-09-27T01:52:55.209Z,959.12
2022-09-27T01:58:26.938Z,959.14
2022-09-27T02:03:58.649Z,959.32
2022-09-27T02:09:30.345Z,959.64
2022-09-27T02:15:02.145Z,959.68
2022-09-27T02:20:33.810Z,959.57
2022-09-27T02:26:05.514Z,959.56
2022-09-27T02:31:41.642Z,959.61
2022-09-27T02:37:13.418Z,959.73
2022-09-27T02:42:45.135Z,958.62
2022-09-27T02:48:16.887Z,959.11
2022-09-27T02:53:48.640Z,959.86
2022-09-27T02:59:20.247Z,959.68
2022-09-27T03:04:52.009Z,959.49
2022-09-27T03:10:23.718Z,959.39
2022-09-27T03:16:02.105Z,959.26
2022-09-27T03:21:27.101Z,959.33
2022-09-27T03:26:58.857Z,959.7
2022-09-27T03:32:34.997Z,959.94
2022-09-27T03:38:06.674Z,959.82
2022-09-27T03:43:38.525Z,959.61
2022-09-27T03:49:10.258Z,960.03
2022-09-27T03:54:41.858Z,960.01
2022-09-27T04:00:13.599Z,960.11
2022-09-27T04:05:45.343Z,960.63
2022-09-27T04:11:17.121Z,960.62
2022-09-27T04:16:49.174Z,960.55
2022-09-27T04:22:20.478Z,960.44
2022-09-27T04:27:52.367Z,960.98
2022-09-27T04:33:28.374Z,960.58
2022-09-27T04:39:00.086Z,960.61
2022-09-27T04:44:33.512Z,960.62
2022-09-27T04:50:05.238Z,961.16
2022-09-27T04:55:36.975Z,960.84
2022-09-27T05:01:08.814Z,961.32
2022-09-27T05:06:40.478Z,960.89
2022-09-27T05:12:12.143Z,961.4
2022-09-27T05:17:43.845Z,961.63
2022-09-27T05:23:15.582Z,961.33
2022-09-27T05:28:47.327Z,961.52
2022-09-27T05:34:23.383Z,961.7
2022-09-27T05:39:55.162Z,961.78
2022-09-27T05:45:26.798Z,961.67
2022-09-27T05:50:58.573Z,961.62
2022-09-27T05:56:30.238Z,962.15
2022-09-27T06:02:02.162Z,961.76
2022-09-27T06:07:33.709Z,961.91
2022-09-27T06:13:05.423Z,962.48
2022-09-27T06:18:37.241Z,962.61
2022-09-27T06:24:09.026Z,962.38
2022-09-27T06:29:40.968Z,962.76
2022-09-27T06:35:18.786Z,962.68
2022-09-27T06:40:50.630Z,962.57
2022-09-27T06:46:22.515Z,962.54
2022-09-27T06:51:53.944Z,962.97
2022-09-27T06:57:25.765Z,962.73
2022-09-27T07:02:57.479Z,962.88
2022-09-27T07:08:29.239Z,962.41
2022-09-27T07:14:00.812Z,962.95
2022-09-27T07:19:32.657Z,962.89
2022-09-27T07:25:04.433Z,963.43
2022-09-27T07:30:36.214Z,963.29
2022-09-27T07:36:12.266Z,963.51
2022-09-27T07:41:43.874Z,963.65
2022-09-27T07:47:15.657Z,964.13
2022-09-27T07:52:47.314Z,964.44
2022-09-27T07:58:19.033Z,964.69
2022-09-27T08:03:50.856Z,965.28
2022-09-27T08:09:22.504Z,964.92
2022-09-27T08:14:54.375Z,964.75
2022-09-27T08:20:26.058Z,964.79
2022-09-27T08:25:57.800Z,964.81
2022-09-27T08:31:29.617Z,965.7
2022-09-27T08:37:05.435Z,965.95
2022-09-27T08:42:37.146Z,965.45
2022-09-27T08:48:09.059Z,965.15
2022-09-27T08:53:40.670Z,965.32
2022-09-27T08:59:12.631Z,965.19
2022-09-27T09:04:44.184Z,965.45
2022-09-27T09:10:15.848Z,965.68
2022-09-27T09:15:47.557Z,965.24
2022-09-27T09:21:19.414Z,965.05
2022-09-27T09:26:51.066Z,965.68
2022-09-27T09:32:22.746Z,966.19
2022-09-27T09:37:58.871Z,966.1
2022-09-27T09:43:30.649Z,966.31
2022-09-27T09:49:02.234Z,965.97
2022-09-27T09:54:34.168Z,965.39
2022-09-27T10:00:05.771Z,965.84
2022-09-27T10:05:37.600Z,966.08
2022-09-27T10:11:09.215Z,966.61
2022-09-27T10:16:40.997Z,966.12
2022-09-27T10:22:12.687Z,965.8
2022-09-27T10:27:44.522Z,965.74
2022-09-27T10:33:16.179Z,965.01
2022-09-27T10:38:52.239Z,964.9
2022-09-27T10:44:24.023Z,965.26
2022-09-27T10:49:55.660Z,965.27
2022-09-27T10:55:27.416Z,965.43
2022-09-27T11:00:59.533Z,965.15
2022-09-27T11:06:30.808Z,964.7
2022-09-27T11:12:02.562Z,964.42
2022-09-27T11:17:34.330Z,964.12
2022-09-27T11:23:06.093Z,964.49
2022-09-27T11:28:38.227Z,964.2
2022-09-27T11:34:10.671Z,964.57
2022-09-27T11:39:47.647Z,964.38
2022-09-27T11:46:17.712Z,963.79
2022-09-27T11:50:51.069Z,962.89
2022-09-27T11:56:22.772Z,961.67
2022-09-27T12:01:54.600Z,961.62
2022-09-27T12:07:26.297Z,962.0
2022-09-27T12:12:57.967Z,962.57
2022-09-27T12:18:29.710Z,962.83
2022-09-27T12:24:01.447Z,962.68
2022-09-27T12:29:33.077Z,962.78
2022-09-27T12:35:05.058Z,963.27
2022-09-27T12:40:41.120Z,962.69
2022-09-27T12:46:12.848Z,962.89
2022-09-27T12:51:44.396Z,963.03
2022-09-27T12:57:18.830Z,963.13
2022-09-27T13:03:17.587Z,964.23
2022-09-27T13:08:19.538Z,963.7
2022-09-27T13:13:51.213Z,963.71
2022-09-27T13:19:27.748Z,963.03
2022-09-27T13:24:54.707Z,963.02
2022-09-27T13:30:26.516Z,963.16
2022-09-27T13:35:58.326Z,963.74
2022-09-27T13:41:34.376Z,963.93
2022-09-27T13:47:06.223Z,963.98
2022-09-27T13:52:37.855Z,963.74
2022-09-27T13:58:09.611Z,963.5
2022-09-27T14:03:41.171Z,963.22
2022-09-27T14:09:13.357Z,963.41
2022-09-27T14:14:44.898Z,964.07
2022-09-27T14:20:16.524Z,964.13
2022-09-27T14:25:48.235Z,964.17
2022-09-27T14:31:20.458Z,964.49
2022-09-27T14:36:51.677Z,964.94
2022-09-27T14:42:29.835Z,964.8
2022-09-27T14:48:01.542Z,965.27
2022-09-27T14:53:33.242Z,965.18
2022-09-27T14:59:05.130Z,965.5
2022-09-27T15:04:37.105Z,966.0
2022-09-27T15:10:08.616Z,966.01
2022-09-27T15:15:40.698Z,965.3
2022-09-27T15:21:11.942Z,964.87
2022-09-27T15:26:43.573Z,964.95
2022-09-27T15:32:15.346Z,965.1
2022-09-27T15:37:47.169Z,965.19
2022-09-27T15:43:25.326Z,964.91
2022-09-27T15:48:57.066Z,964.87
2022-09-27T15:54:28.718Z,964.79
2022-09-27T16:00:00.427Z,964.53
2022-09-27T16:05:32.209Z,964.83
2022-09-27T16:11:03.867Z,964.86
2022-09-27T16:16:35.684Z,964.66
2022-09-27T16:22:07.350Z,964.39
2022-09-27T16:27:39.162Z,964.32
2022-09-27T16:33:10.807Z,964.42
2022-09-27T16:38:42.597Z,964.59
2022-09-27T16:44:22.535Z,964.56
2022-09-27T16:49:54.384Z,964.43
2022-09-27T16:55:26.046Z,964.7
2022-09-27T17:00:58.016Z,964.66
2022-09-27T17:06:29.425Z,964.3
2022-09-27T17:12:01.375Z,964.38
2022-09-27T17:17:32.986Z,964.1
2022-09-27T17:23:04.653Z,963.99
2022-09-27T17:28:36.471Z,963.78
2022-09-27T17:34:08.177Z,963.94
2022-09-27T17:39:39.877Z,963.96
2022-09-27T17:45:15.981Z,964.42
2022-09-27T17:50:47.709Z,964.53
2022-09-27T17:56:19.568Z,964.66
2022-09-27T18:01:51.629Z,964.07
2022-09-27T18:07:22.820Z,964.15
2022-09-27T18:12:54.613Z,964.18
2022-09-27T18:18:26.205Z,964.15
2022-09-27T18:23:58.004Z,964.21
2022-09-27T18:29:29.811Z,964.31
2022-09-27T18:35:01.425Z,964.23
2022-09-27T18:40:57.155Z,964.05
2022-09-27T18:46:37.384Z,963.94
2022-09-27T18:51:41.066Z,964.03
2022-09-27T18:57:12.812Z,964.31
2022-09-27T19:02:44.487Z,964.13
2022-09-27T19:08:16.262Z,963.98
2022-09-27T19:13:52.234Z,963.92
2022-09-27T19:19:19.933Z,964.14
2022-09-27T19:24:51.458Z,963.88
2022-09-27T19:30:23.160Z,963.91
2022-09-27T19:35:54.986Z,963.91
2022-09-27T19:41:26.802Z,963.85
2022-09-27T19:47:03.038Z,963.83
2022-09-27T19:52:34.597Z,963.68
2022-09-27T19:58:06.183Z,964.11
2022-09-27T20:03:37.910Z,963.69
2022-09-27T20:09:09.635Z,964.27
2022-09-27T20:14:41.698Z,964.49
2022-09-27T20:20:13.097Z,964.13
2022-09-27T20:25:44.878Z,963.89
2022-09-27T20:31:16.696Z,963.31
2022-09-27T20:36:48.242Z,963.17
2022-09-27T20:42:20.008Z,963.26
2022-09-27T20:47:56.142Z,962.95
2022-09-27T20:53:27.947Z,962.97
2022-09-27T20:58:59.527Z,963.05
2022-09-27T21:04:31.260Z,963.07
2022-09-27T21:10:03.021Z,962.96
2022-09-27T21:15:34.741Z,963.15
2022-09-27T21:21:06.617Z,963.41
2022-09-27T21:26:38.170Z,963.58
2022-09-27T21:32:09.926Z,964.18
2022-09-27T21:37:44.270Z,964.12
2022-09-27T21:43:13.401Z,963.8
2022-09-27T21:48:49.429Z,964.0
2022-09-27T21:54:21.118Z,963.54
2022-09-27T21:59:53.083Z,963.97
2022-09-27T22:05:25.113Z,963.19
2022-09-27T22:10:56.358Z,963.2
2022-09-27T22:16:28.170Z,963.22
2022-09-27T22:21:59.809Z,963.32
2022-09-27T22:27:31.927Z,963.18
2022-09-27T22:33:03.226Z,962.96
2022-09-27T22:38:34.894Z,963.25
2022-09-27T22:44:06.766Z,963.3
2022-09-27T22:49:44.866Z,963.48
2022-09-27T22:55:16.508Z,963.75
2022-09-27T23:00:48.412Z,963.62
2022-09-27T23:06:19.951Z,963.21
2022-09-27T23:11:51.658Z,963.06
2022-09-27T23:17:23.409Z,962.62
2022-09-27T23:22:55.098Z,962.36
2022-09-27T23:28:26.710Z,962.79
2022-09-27T23:33:58.646Z,962.38
2022-09-27T23:39:30.922Z,962.21
2022-09-27T23:45:01.999Z,962.44
2022-09-27T23:50:38.134Z,962.11
2022-09-27T23:56:09.788Z,961.85
